sensor_id;sensor_type;location;lat;lon;timestamp;P1;durP1;ratioP1;P2;durP2;ratioP2
16642;SDS011;8435;52.184;5.406;2023-07-13T00:02:05;5.88;;;2.33;;
16642;SDS011;8435;52.184;5.406;2023-07-13T00:04:32;6.03;;;2.10;;
16642;SDS011;8435;52.184;5.406;2023-07-13T00:07:02;3.38;;;2.00;;
16642;SDS011;8435;52.184;5.406;2023-07-13T00:09:30;4.65;;;2.10;;
16642;SDS011;8435;52.184;5.406;2023-07-13T00:11:57;4.18;;;2.10;;
16642;SDS011;8435;52.184;5.406;2023-07-13T00:14:27;5.75;;;2.22;;
16642;SDS011;8435;52.184;5.406;2023-07-13T00:16:55;6.53;;;1.90;;
16642;SDS011;8435;52.184;5.406;2023-07-13T00:19:25;4.20;;;1.80;;
16642;SDS011;8435;52.184;5.406;2023-07-13T00:21:52;4.80;;;2.17;;
16642;SDS011;8435;52.184;5.406;2023-07-13T00:24:22;7.32;;;2.13;;
16642;SDS011;8435;52.184;5.406;2023-07-13T00:26:49;4.35;;;2.08;;
16642;SDS011;8435;52.184;5.406;2023-07-13T00:29:16;6.47;;;2.20;;
16642;SDS011;8435;52.184;5.406;2023-07-13T00:31:43;5.82;;;2.08;;
16642;SDS011;8435;52.184;5.406;2023-07-13T00:34:11;4.10;;;1.90;;
16642;SDS011;8435;52.184;5.406;2023-07-13T00:36:38;5.72;;;2.15;;
16642;SDS011;8435;52.184;5.406;2023-07-13T00:39:05;3.90;;;1.95;;
16642;SDS011;8435;52.184;5.406;2023-07-13T00:41:33;5.70;;;2.17;;
16642;SDS011;8435;52.184;5.406;2023-07-13T00:44:02;5.82;;;1.90;;
16642;SDS011;8435;52.184;5.406;2023-07-13T00:46:35;3.10;;;1.80;;
16642;SDS011;8435;52.184;5.406;2023-07-13T00:49:03;4.03;;;2.00;;
16642;SDS011;8435;52.184;5.406;2023-07-13T00:51:33;5.75;;;2.15;;
16642;SDS011;8435;52.184;5.406;2023-07-13T00:54:06;3.15;;;1.95;;
16642;SDS011;8435;52.184;5.406;2023-07-13T00:56:38;3.38;;;1.58;;
16642;SDS011;8435;52.184;5.406;2023-07-13T00:59:08;4.55;;;1.58;;
16642;SDS011;8435;52.184;5.406;2023-07-13T01:01:36;4.97;;;1.88;;
16642;SDS011;8435;52.184;5.406;2023-07-13T01:04:04;4.85;;;1.77;;
16642;SDS011;8435;52.184;5.406;2023-07-13T01:06:33;2.53;;;1.48;;
16642;SDS011;8435;52.184;5.406;2023-07-13T01:09:01;4.67;;;1.63;;
16642;SDS011;8435;52.184;5.406;2023-07-13T01:11:30;4.85;;;1.90;;
16642;SDS011;8435;52.184;5.406;2023-07-13T01:13:59;4.13;;;1.93;;
16642;SDS011;8435;52.184;5.406;2023-07-13T01:16:27;4.00;;;1.70;;
16642;SDS011;8435;52.184;5.406;2023-07-13T01:18:56;5.80;;;2.47;;
16642;SDS011;8435;52.184;5.406;2023-07-13T01:21:28;2.28;;;1.48;;
16642;SDS011;8435;52.184;5.406;2023-07-13T01:23:58;4.03;;;2.13;;
16642;SDS011;8435;52.184;5.406;2023-07-13T01:26:25;3.10;;;2.00;;
16642;SDS011;8435;52.184;5.406;2023-07-13T01:28:53;3.70;;;1.67;;
16642;SDS011;8435;52.184;5.406;2023-07-13T01:31:22;4.53;;;1.63;;
16642;SDS011;8435;52.184;5.406;2023-07-13T01:33:49;4.60;;;1.80;;
16642;SDS011;8435;52.184;5.406;2023-07-13T01:36:16;4.40;;;1.77;;
16642;SDS011;8435;52.184;5.406;2023-07-13T01:38:47;3.10;;;1.80;;
16642;SDS011;8435;52.184;5.406;2023-07-13T01:41:14;4.38;;;2.13;;
16642;SDS011;8435;52.184;5.406;2023-07-13T01:43:41;4.10;;;2.05;;
16642;SDS011;8435;52.184;5.406;2023-07-13T01:46:08;3.83;;;1.85;;
16642;SDS011;8435;52.184;5.406;2023-07-13T01:48:37;5.45;;;1.92;;
16642;SDS011;8435;52.184;5.406;2023-07-13T01:51:07;3.63;;;1.80;;
16642;SDS011;8435;52.184;5.406;2023-07-13T01:53:34;8.63;;;2.00;;
16642;SDS011;8435;52.184;5.406;2023-07-13T01:56:05;3.83;;;1.63;;
16642;SDS011;8435;52.184;5.406;2023-07-13T01:58:34;3.72;;;1.70;;
16642;SDS011;8435;52.184;5.406;2023-07-13T02:01:04;3.58;;;1.90;;
16642;SDS011;8435;52.184;5.406;2023-07-13T02:03:31;4.13;;;1.85;;
16642;SDS011;8435;52.184;5.406;2023-07-13T02:05:58;6.87;;;1.83;;
16642;SDS011;8435;52.184;5.406;2023-07-13T02:08:25;6.17;;;2.30;;
16642;SDS011;8435;52.184;5.406;2023-07-13T02:10:54;4.40;;;1.73;;
16642;SDS011;8435;52.184;5.406;2023-07-13T02:13:22;5.18;;;1.90;;
16642;SDS011;8435;52.184;5.406;2023-07-13T02:15:49;6.13;;;1.90;;
16642;SDS011;8435;52.184;5.406;2023-07-13T02:18:17;4.22;;;2.00;;
16642;SDS011;8435;52.184;5.406;2023-07-13T02:20:44;4.18;;;1.92;;
16642;SDS011;8435;52.184;5.406;2023-07-13T02:23:11;3.40;;;1.80;;
16642;SDS011;8435;52.184;5.406;2023-07-13T02:25:39;5.07;;;2.53;;
16642;SDS011;8435;52.184;5.406;2023-07-13T02:28:06;5.83;;;2.37;;
16642;SDS011;8435;52.184;5.406;2023-07-13T02:30:36;4.50;;;1.77;;
16642;SDS011;8435;52.184;5.406;2023-07-13T02:33:04;1.50;;;1.40;;
16642;SDS011;8435;52.184;5.406;2023-07-13T02:35:32;5.33;;;1.87;;
16642;SDS011;8435;52.184;5.406;2023-07-13T02:38:00;4.50;;;2.13;;
16642;SDS011;8435;52.184;5.406;2023-07-13T02:40:27;4.00;;;1.93;;
16642;SDS011;8435;52.184;5.406;2023-07-13T02:42:54;5.13;;;2.00;;
16642;SDS011;8435;52.184;5.406;2023-07-13T02:45:21;5.57;;;2.07;;
16642;SDS011;8435;52.184;5.406;2023-07-13T02:47:49;6.03;;;2.47;;
16642;SDS011;8435;52.184;5.406;2023-07-13T02:50:16;5.83;;;2.17;;
16642;SDS011;8435;52.184;5.406;2023-07-13T02:52:43;3.67;;;1.90;;
16642;SDS011;8435;52.184;5.406;2023-07-13T02:55:10;3.97;;;1.93;;
16642;SDS011;8435;52.184;5.406;2023-07-13T02:57:37;3.75;;;2.40;;
16642;SDS011;8435;52.184;5.406;2023-07-13T03:00:05;4.33;;;2.30;;
16642;SDS011;8435;52.184;5.406;2023-07-13T03:02:35;5.20;;;2.07;;
16642;SDS011;8435;52.184;5.406;2023-07-13T03:05:04;9.47;;;2.17;;
16642;SDS011;8435;52.184;5.406;2023-07-13T03:07:32;5.47;;;2.27;;
16642;SDS011;8435;52.184;5.406;2023-07-13T03:09:59;4.90;;;2.17;;
16642;SDS011;8435;52.184;5.406;2023-07-13T03:12:26;3.13;;;1.83;;
16642;SDS011;8435;52.184;5.406;2023-07-13T03:14:53;5.97;;;2.30;;
16642;SDS011;8435;52.184;5.406;2023-07-13T03:17:23;5.03;;;2.07;;
16642;SDS011;8435;52.184;5.406;2023-07-13T03:19:50;6.27;;;2.70;;
16642;SDS011;8435;52.184;5.406;2023-07-13T03:22:21;4.80;;;2.17;;
16642;SDS011;8435;52.184;5.406;2023-07-13T03:24:48;6.73;;;2.53;;
16642;SDS011;8435;52.184;5.406;2023-07-13T03:27:15;4.30;;;2.40;;
16642;SDS011;8435;52.184;5.406;2023-07-13T03:29:43;7.03;;;2.60;;
16642;SDS011;8435;52.184;5.406;2023-07-13T03:32:10;6.30;;;2.20;;
16642;SDS011;8435;52.184;5.406;2023-07-13T03:34:37;5.10;;;2.53;;
16642;SDS011;8435;52.184;5.406;2023-07-13T03:37:04;4.93;;;2.47;;
16642;SDS011;8435;52.184;5.406;2023-07-13T03:39:32;5.43;;;2.33;;
16642;SDS011;8435;52.184;5.406;2023-07-13T03:41:59;3.93;;;2.40;;
16642;SDS011;8435;52.184;5.406;2023-07-13T03:44:26;4.80;;;2.20;;
16642;SDS011;8435;52.184;5.406;2023-07-13T03:46:53;6.93;;;2.63;;
16642;SDS011;8435;52.184;5.406;2023-07-13T03:49:20;5.20;;;2.80;;
16642;SDS011;8435;52.184;5.406;2023-07-13T03:51:47;5.57;;;2.30;;
16642;SDS011;8435;52.184;5.406;2023-07-13T03:54:14;5.60;;;2.13;;
16642;SDS011;8435;52.184;5.406;2023-07-13T03:56:42;7.97;;;2.80;;
16642;SDS011;8435;52.184;5.406;2023-07-13T03:59:09;4.47;;;2.53;;
16642;SDS011;8435;52.184;5.406;2023-07-13T04:01:37;5.17;;;2.47;;
16642;SDS011;8435;52.184;5.406;2023-07-13T04:04:04;6.07;;;2.80;;
16642;SDS011;8435;52.184;5.406;2023-07-13T04:06:31;5.37;;;2.50;;
16642;SDS011;8435;52.184;5.406;2023-07-13T04:08:59;6.93;;;2.40;;
16642;SDS011;8435;52.184;5.406;2023-07-13T04:11:29;4.77;;;2.50;;
16642;SDS011;8435;52.184;5.406;2023-07-13T04:13:58;7.90;;;2.70;;
16642;SDS011;8435;52.184;5.406;2023-07-13T04:16:28;8.00;;;2.27;;
16642;SDS011;8435;52.184;5.406;2023-07-13T04:18:56;4.40;;;2.50;;
16642;SDS011;8435;52.184;5.406;2023-07-13T04:21:24;5.17;;;2.93;;
16642;SDS011;8435;52.184;5.406;2023-07-13T04:23:52;6.33;;;3.07;;
16642;SDS011;8435;52.184;5.406;2023-07-13T04:26:19;5.20;;;2.73;;
16642;SDS011;8435;52.184;5.406;2023-07-13T04:28:47;6.40;;;3.00;;
16642;SDS011;8435;52.184;5.406;2023-07-13T04:31:16;4.80;;;2.43;;
16642;SDS011;8435;52.184;5.406;2023-07-13T04:33:43;4.47;;;2.70;;
16642;SDS011;8435;52.184;5.406;2023-07-13T04:36:10;6.50;;;3.20;;
16642;SDS011;8435;52.184;5.406;2023-07-13T04:38:37;5.33;;;2.83;;
16642;SDS011;8435;52.184;5.406;2023-07-13T04:41:05;6.40;;;3.20;;
16642;SDS011;8435;52.184;5.406;2023-07-13T04:43:34;6.67;;;3.20;;
16642;SDS011;8435;52.184;5.406;2023-07-13T04:46:05;6.60;;;3.40;;
16642;SDS011;8435;52.184;5.406;2023-07-13T04:48:34;5.53;;;3.20;;
16642;SDS011;8435;52.184;5.406;2023-07-13T04:51:01;7.27;;;3.20;;
16642;SDS011;8435;52.184;5.406;2023-07-13T04:53:28;9.83;;;3.30;;
16642;SDS011;8435;52.184;5.406;2023-07-13T04:55:57;8.43;;;3.63;;
16642;SDS011;8435;52.184;5.406;2023-07-13T04:58:24;6.07;;;3.40;;
16642;SDS011;8435;52.184;5.406;2023-07-13T05:00:53;7.43;;;3.87;;
16642;SDS011;8435;52.184;5.406;2023-07-13T05:03:29;7.00;;;3.30;;
16642;SDS011;8435;52.184;5.406;2023-07-13T05:05:58;7.50;;;3.20;;
16642;SDS011;8435;52.184;5.406;2023-07-13T05:08:26;7.97;;;4.20;;
16642;SDS011;8435;52.184;5.406;2023-07-13T05:10:53;8.90;;;4.33;;
16642;SDS011;8435;52.184;5.406;2023-07-13T05:13:20;9.07;;;3.90;;
16642;SDS011;8435;52.184;5.406;2023-07-13T05:15:48;8.60;;;4.17;;
16642;SDS011;8435;52.184;5.406;2023-07-13T05:18:22;10.30;;;4.47;;
16642;SDS011;8435;52.184;5.406;2023-07-13T05:20:56;9.47;;;5.03;;
16642;SDS011;8435;52.184;5.406;2023-07-13T05:23:26;8.97;;;4.90;;
16642;SDS011;8435;52.184;5.406;2023-07-13T05:25:57;10.77;;;4.90;;
16642;SDS011;8435;52.184;5.406;2023-07-13T05:28:27;9.03;;;4.83;;
16642;SDS011;8435;52.184;5.406;2023-07-13T05:30:54;8.30;;;4.82;;
16642;SDS011;8435;52.184;5.406;2023-07-13T05:33:21;11.63;;;5.15;;
16642;SDS011;8435;52.184;5.406;2023-07-13T05:35:48;11.18;;;5.53;;
16642;SDS011;8435;52.184;5.406;2023-07-13T05:38:17;10.88;;;5.40;;
16642;SDS011;8435;52.184;5.406;2023-07-13T05:40:43;11.02;;;5.43;;
16642;SDS011;8435;52.184;5.406;2023-07-13T05:43:12;13.68;;;5.57;;
16642;SDS011;8435;52.184;5.406;2023-07-13T05:45:39;7.47;;;4.85;;
16642;SDS011;8435;52.184;5.406;2023-07-13T05:48:13;8.35;;;5.07;;
16642;SDS011;8435;52.184;5.406;2023-07-13T05:50:40;9.35;;;5.07;;
16642;SDS011;8435;52.184;5.406;2023-07-13T05:53:07;9.63;;;4.75;;
16642;SDS011;8435;52.184;5.406;2023-07-13T05:55:35;8.38;;;4.85;;
16642;SDS011;8435;52.184;5.406;2023-07-13T05:58:06;8.90;;;4.70;;
16642;SDS011;8435;52.184;5.406;2023-07-13T06:00:33;8.90;;;5.82;;
16642;SDS011;8435;52.184;5.406;2023-07-13T06:03:02;7.72;;;5.53;;
16642;SDS011;8435;52.184;5.406;2023-07-13T06:05:29;10.05;;;5.80;;
16642;SDS011;8435;52.184;5.406;2023-07-13T06:07:56;14.05;;;5.93;;
16642;SDS011;8435;52.184;5.406;2023-07-13T06:10:23;9.90;;;5.72;;
16642;SDS011;8435;52.184;5.406;2023-07-13T06:12:51;8.10;;;5.53;;
16642;SDS011;8435;52.184;5.406;2023-07-13T06:15:18;8.57;;;5.45;;
16642;SDS011;8435;52.184;5.406;2023-07-13T06:17:48;9.35;;;5.75;;
16642;SDS011;8435;52.184;5.406;2023-07-13T06:20:17;9.77;;;5.10;;
16642;SDS011;8435;52.184;5.406;2023-07-13T06:22:44;9.93;;;6.20;;
16642;SDS011;8435;52.184;5.406;2023-07-13T06:25:11;10.95;;;5.90;;
16642;SDS011;8435;52.184;5.406;2023-07-13T06:27:37;8.38;;;4.95;;
16642;SDS011;8435;52.184;5.406;2023-07-13T06:30:06;9.68;;;5.43;;
16642;SDS011;8435;52.184;5.406;2023-07-13T06:32:34;8.55;;;5.43;;
16642;SDS011;8435;52.184;5.406;2023-07-13T06:35:01;9.77;;;5.57;;
16642;SDS011;8435;52.184;5.406;2023-07-13T06:37:29;8.55;;;5.78;;
16642;SDS011;8435;52.184;5.406;2023-07-13T06:39:55;8.95;;;5.32;;
16642;SDS011;8435;52.184;5.406;2023-07-13T06:42:22;11.05;;;4.85;;
16642;SDS011;8435;52.184;5.406;2023-07-13T06:44:49;8.60;;;5.07;;
16642;SDS011;8435;52.184;5.406;2023-07-13T06:47:18;8.23;;;5.47;;
16642;SDS011;8435;52.184;5.406;2023-07-13T06:49:45;11.00;;;4.95;;
16642;SDS011;8435;52.184;5.406;2023-07-13T06:52:12;9.48;;;4.43;;
16642;SDS011;8435;52.184;5.406;2023-07-13T06:54:41;7.72;;;4.60;;
16642;SDS011;8435;52.184;5.406;2023-07-13T06:57:08;10.25;;;5.30;;
16642;SDS011;8435;52.184;5.406;2023-07-13T06:59:35;7.35;;;4.78;;
16642;SDS011;8435;52.184;5.406;2023-07-13T07:02:05;8.80;;;4.70;;
16642;SDS011;8435;52.184;5.406;2023-07-13T07:04:35;8.52;;;4.47;;
16642;SDS011;8435;52.184;5.406;2023-07-13T07:07:02;7.82;;;4.78;;
16642;SDS011;8435;52.184;5.406;2023-07-13T07:09:29;6.95;;;4.82;;
16642;SDS011;8435;52.184;5.406;2023-07-13T07:11:56;11.18;;;5.45;;
16642;SDS011;8435;52.184;5.406;2023-07-13T07:14:23;8.93;;;5.10;;
16642;SDS011;8435;52.184;5.406;2023-07-13T07:16:50;8.30;;;4.93;;
16642;SDS011;8435;52.184;5.406;2023-07-13T07:19:17;9.20;;;5.57;;
16642;SDS011;8435;52.184;5.406;2023-07-13T07:21:45;10.02;;;5.40;;
16642;SDS011;8435;52.184;5.406;2023-07-13T07:24:12;8.02;;;5.63;;
16642;SDS011;8435;52.184;5.406;2023-07-13T07:26:46;10.05;;;5.55;;
16642;SDS011;8435;52.184;5.406;2023-07-13T07:29:13;7.10;;;5.22;;
16642;SDS011;8435;52.184;5.406;2023-07-13T07:31:40;7.20;;;5.22;;
16642;SDS011;8435;52.184;5.406;2023-07-13T07:34:07;9.70;;;5.97;;
16642;SDS011;8435;52.184;5.406;2023-07-13T07:36:33;10.68;;;6.30;;
16642;SDS011;8435;52.184;5.406;2023-07-13T07:39:02;9.48;;;5.03;;
16642;SDS011;8435;52.184;5.406;2023-07-13T07:41:30;7.47;;;5.10;;
16642;SDS011;8435;52.184;5.406;2023-07-13T07:43:57;8.35;;;5.35;;
16642;SDS011;8435;52.184;5.406;2023-07-13T07:46:23;8.32;;;5.43;;
16642;SDS011;8435;52.184;5.406;2023-07-13T07:48:50;5.90;;;4.40;;
16642;SDS011;8435;52.184;5.406;2023-07-13T07:51:17;5.40;;;4.25;;
16642;SDS011;8435;52.184;5.406;2023-07-13T07:53:44;6.68;;;4.30;;
16642;SDS011;8435;52.184;5.406;2023-07-13T07:56:13;5.70;;;4.45;;
16642;SDS011;8435;52.184;5.406;2023-07-13T07:58:41;5.32;;;4.28;;
16642;SDS011;8435;52.184;5.406;2023-07-13T08:01:08;8.60;;;4.38;;
16642;SDS011;8435;52.184;5.406;2023-07-13T08:03:37;9.60;;;4.88;;
16642;SDS011;8435;52.184;5.406;2023-07-13T08:06:04;7.88;;;5.63;;
16642;SDS011;8435;52.184;5.406;2023-07-13T08:08:31;10.57;;;6.43;;
16642;SDS011;8435;52.184;5.406;2023-07-13T08:11:01;7.78;;;6.13;;
16642;SDS011;8435;52.184;5.406;2023-07-13T08:13:30;12.68;;;6.43;;
16642;SDS011;8435;52.184;5.406;2023-07-13T08:15:57;8.70;;;6.55;;
16642;SDS011;8435;52.184;5.406;2023-07-13T08:18:24;8.05;;;6.13;;
16642;SDS011;8435;52.184;5.406;2023-07-13T08:20:53;10.02;;;6.07;;
16642;SDS011;8435;52.184;5.406;2023-07-13T08:23:21;8.60;;;5.50;;
16642;SDS011;8435;52.184;5.406;2023-07-13T08:25:50;9.00;;;5.22;;
16642;SDS011;8435;52.184;5.406;2023-07-13T08:28:17;8.30;;;4.60;;
16642;SDS011;8435;52.184;5.406;2023-07-13T08:30:46;5.22;;;4.25;;
16642;SDS011;8435;52.184;5.406;2023-07-13T08:33:14;7.25;;;4.10;;
16642;SDS011;8435;52.184;5.406;2023-07-13T08:35:41;5.60;;;4.00;;
16642;SDS011;8435;52.184;5.406;2023-07-13T08:38:08;5.40;;;3.83;;
16642;SDS011;8435;52.184;5.406;2023-07-13T08:40:37;7.15;;;3.78;;
16642;SDS011;8435;52.184;5.406;2023-07-13T08:43:06;9.20;;;3.72;;
16642;SDS011;8435;52.184;5.406;2023-07-13T08:45:44;6.53;;;3.72;;
16642;SDS011;8435;52.184;5.406;2023-07-13T08:48:27;8.98;;;3.65;;
16642;SDS011;8435;52.184;5.406;2023-07-13T08:50:57;5.03;;;3.65;;
16642;SDS011;8435;52.184;5.406;2023-07-13T08:53:33;4.78;;;3.72;;
16642;SDS011;8435;52.184;5.406;2023-07-13T08:56:03;3.75;;;2.90;;
16642;SDS011;8435;52.184;5.406;2023-07-13T08:58:36;2.40;;;1.85;;
16642;SDS011;8435;52.184;5.406;2023-07-13T09:01:06;2.63;;;1.77;;
16642;SDS011;8435;52.184;5.406;2023-07-13T09:03:49;2.80;;;2.10;;
16642;SDS011;8435;52.184;5.406;2023-07-13T09:06:23;2.00;;;1.80;;
16642;SDS011;8435;52.184;5.406;2023-07-13T09:09:10;3.45;;;2.10;;
16642;SDS011;8435;52.184;5.406;2023-07-13T09:11:47;1.65;;;1.52;;
16642;SDS011;8435;52.184;5.406;2023-07-13T09:14:26;4.68;;;1.83;;
16642;SDS011;8435;52.184;5.406;2023-07-13T09:17:18;1.90;;;1.70;;
16642;SDS011;8435;52.184;5.406;2023-07-13T09:19:49;4.18;;;2.10;;
16642;SDS011;8435;52.184;5.406;2023-07-13T09:22:22;3.83;;;2.30;;
16642;SDS011;8435;52.184;5.406;2023-07-13T09:24:55;3.25;;;1.85;;
16642;SDS011;8435;52.184;5.406;2023-07-13T09:27:30;4.60;;;2.42;;
16642;SDS011;8435;52.184;5.406;2023-07-13T09:30:10;2.80;;;1.92;;
16642;SDS011;8435;52.184;5.406;2023-07-13T09:32:50;2.83;;;2.10;;
16642;SDS011;8435;52.184;5.406;2023-07-13T09:35:21;2.40;;;2.00;;
16642;SDS011;8435;52.184;5.406;2023-07-13T09:37:51;3.13;;;2.30;;
16642;SDS011;8435;52.184;5.406;2023-07-13T09:40:24;3.15;;;2.35;;
16642;SDS011;8435;52.184;5.406;2023-07-13T09:42:55;4.20;;;2.55;;
16642;SDS011;8435;52.184;5.406;2023-07-13T09:45:27;2.90;;;2.40;;
16642;SDS011;8435;52.184;5.406;2023-07-13T09:47:59;4.07;;;2.78;;
16642;SDS011;8435;52.184;5.406;2023-07-13T09:50:34;4.05;;;2.70;;
16642;SDS011;8435;52.184;5.406;2023-07-13T09:53:01;4.85;;;3.25;;
16642;SDS011;8435;52.184;5.406;2023-07-13T09:55:29;5.40;;;3.63;;
16642;SDS011;8435;52.184;5.406;2023-07-13T09:57:57;3.08;;;2.78;;
16642;SDS011;8435;52.184;5.406;2023-07-13T10:00:30;4.07;;;3.00;;
16642;SDS011;8435;52.184;5.406;2023-07-13T10:02:58;2.72;;;2.25;;
16642;SDS011;8435;52.184;5.406;2023-07-13T10:05:38;2.90;;;2.42;;
16642;SDS011;8435;52.184;5.406;2023-07-13T10:08:10;3.05;;;2.30;;
16642;SDS011;8435;52.184;5.406;2023-07-13T10:10:43;3.72;;;2.17;;
16642;SDS011;8435;52.184;5.406;2023-07-13T10:13:21;2.10;;;1.88;;
16642;SDS011;8435;52.184;5.406;2023-07-13T10:15:53;1.88;;;1.75;;
16642;SDS011;8435;52.184;5.406;2023-07-13T10:18:21;3.28;;;1.88;;
16642;SDS011;8435;52.184;5.406;2023-07-13T10:20:51;2.90;;;2.15;;
16642;SDS011;8435;52.184;5.406;2023-07-13T10:23:25;3.33;;;2.40;;
16642;SDS011;8435;52.184;5.406;2023-07-13T10:25:57;2.67;;;2.08;;
16642;SDS011;8435;52.184;5.406;2023-07-13T10:28:28;4.85;;;2.47;;
16642;SDS011;8435;52.184;5.406;2023-07-13T10:30:58;2.63;;;2.08;;
16642;SDS011;8435;52.184;5.406;2023-07-13T10:33:27;2.75;;;2.50;;
16642;SDS011;8435;52.184;5.406;2023-07-13T10:36:10;4.40;;;2.33;;
16642;SDS011;8435;52.184;5.406;2023-07-13T10:38:41;3.03;;;2.55;;
16642;SDS011;8435;52.184;5.406;2023-07-13T10:41:10;3.42;;;2.60;;
16642;SDS011;8435;52.184;5.406;2023-07-13T10:43:42;3.00;;;2.38;;
16642;SDS011;8435;52.184;5.406;2023-07-13T10:46:11;4.07;;;2.70;;
16642;SDS011;8435;52.184;5.406;2023-07-13T10:48:40;4.55;;;2.80;;
16642;SDS011;8435;52.184;5.406;2023-07-13T10:51:13;3.78;;;2.45;;
16642;SDS011;8435;52.184;5.406;2023-07-13T10:53:41;4.03;;;2.65;;
16642;SDS011;8435;52.184;5.406;2023-07-13T10:56:18;2.78;;;2.58;;
16642;SDS011;8435;52.184;5.406;2023-07-13T10:59:00;3.55;;;2.72;;
16642;SDS011;8435;52.184;5.406;2023-07-13T11:01:39;4.18;;;3.10;;
16642;SDS011;8435;52.184;5.406;2023-07-13T11:04:12;3.50;;;2.75;;
16642;SDS011;8435;52.184;5.406;2023-07-13T11:06:42;4.22;;;2.50;;
16642;SDS011;8435;52.184;5.406;2023-07-13T11:09:19;4.57;;;3.17;;
16642;SDS011;8435;52.184;5.406;2023-07-13T11:11:58;4.30;;;3.03;;
16642;SDS011;8435;52.184;5.406;2023-07-13T11:14:26;5.35;;;3.33;;
16642;SDS011;8435;52.184;5.406;2023-07-13T11:20:20;2.90;;;2.50;;
16642;SDS011;8435;52.184;5.406;2023-07-13T11:22:52;3.30;;;2.80;;
16642;SDS011;8435;52.184;5.406;2023-07-13T11:25:34;4.28;;;2.80;;
16642;SDS011;8435;52.184;5.406;2023-07-13T11:28:07;2.83;;;2.40;;
16642;SDS011;8435;52.184;5.406;2023-07-13T11:30:46;4.43;;;2.72;;
16642;SDS011;8435;52.184;5.406;2023-07-13T11:33:16;2.63;;;2.42;;
16642;SDS011;8435;52.184;5.406;2023-07-13T11:35:50;3.92;;;2.83;;
16642;SDS011;8435;52.184;5.406;2023-07-13T11:38:28;4.20;;;3.22;;
16642;SDS011;8435;52.184;5.406;2023-07-13T11:41:02;3.35;;;2.80;;
16642;SDS011;8435;52.184;5.406;2023-07-13T11:43:32;4.20;;;2.75;;
16642;SDS011;8435;52.184;5.406;2023-07-13T11:46:11;4.57;;;2.78;;
16642;SDS011;8435;52.184;5.406;2023-07-13T11:48:40;3.75;;;2.88;;
16642;SDS011;8435;52.184;5.406;2023-07-13T11:51:07;4.40;;;3.25;;
16642;SDS011;8435;52.184;5.406;2023-07-13T11:53:47;4.47;;;3.03;;
16642;SDS011;8435;52.184;5.406;2023-07-13T11:56:16;3.05;;;2.72;;
16642;SDS011;8435;52.184;5.406;2023-07-13T11:58:44;4.85;;;2.53;;
16642;SDS011;8435;52.184;5.406;2023-07-13T12:01:16;3.72;;;2.65;;
16642;SDS011;8435;52.184;5.406;2023-07-13T12:03:49;3.33;;;2.65;;
16642;SDS011;8435;52.184;5.406;2023-07-13T12:06:22;3.40;;;2.40;;
16642;SDS011;8435;52.184;5.406;2023-07-13T12:08:55;2.65;;;2.30;;
16642;SDS011;8435;52.184;5.406;2023-07-13T12:11:26;4.47;;;2.45;;
16642;SDS011;8435;52.184;5.406;2023-07-13T12:13:54;3.53;;;2.58;;
16642;SDS011;8435;52.184;5.406;2023-07-13T12:16:23;3.00;;;2.22;;
16642;SDS011;8435;52.184;5.406;2023-07-13T12:18:55;3.35;;;2.65;;
16642;SDS011;8435;52.184;5.406;2023-07-13T12:21:24;3.95;;;2.45;;
16642;SDS011;8435;52.184;5.406;2023-07-13T12:23:57;2.60;;;2.40;;
16642;SDS011;8435;52.184;5.406;2023-07-13T12:26:27;3.67;;;2.58;;
16642;SDS011;8435;52.184;5.406;2023-07-13T12:28:56;3.65;;;3.10;;
16642;SDS011;8435;52.184;5.406;2023-07-13T12:31:29;3.75;;;2.70;;
16642;SDS011;8435;52.184;5.406;2023-07-13T12:33:58;3.97;;;2.65;;
16642;SDS011;8435;52.184;5.406;2023-07-13T12:36:29;4.53;;;2.40;;
16642;SDS011;8435;52.184;5.406;2023-07-13T12:39:01;2.95;;;2.53;;
16642;SDS011;8435;52.184;5.406;2023-07-13T12:41:38;4.93;;;2.63;;
16642;SDS011;8435;52.184;5.406;2023-07-13T12:44:07;4.82;;;2.30;;
16642;SDS011;8435;52.184;5.406;2023-07-13T12:46:52;3.67;;;2.45;;
16642;SDS011;8435;52.184;5.406;2023-07-13T12:49:23;2.50;;;2.30;;
16642;SDS011;8435;52.184;5.406;2023-07-13T12:51:55;2.65;;;2.30;;
16642;SDS011;8435;52.184;5.406;2023-07-13T12:54:28;2.55;;;1.90;;
16642;SDS011;8435;52.184;5.406;2023-07-13T12:56:56;2.47;;;2.03;;
16642;SDS011;8435;52.184;5.406;2023-07-13T12:59:26;2.85;;;2.20;;
16642;SDS011;8435;52.184;5.406;2023-07-13T13:01:58;4.10;;;2.30;;
16642;SDS011;8435;52.184;5.406;2023-07-13T13:04:27;3.67;;;2.20;;
16642;SDS011;8435;52.184;5.406;2023-07-13T13:07:01;3.33;;;2.17;;
16642;SDS011;8435;52.184;5.406;2023-07-13T13:09:31;4.65;;;2.30;;
16642;SDS011;8435;52.184;5.406;2023-07-13T13:11:58;3.20;;;2.25;;
16642;SDS011;8435;52.184;5.406;2023-07-13T13:14:25;3.63;;;2.42;;
16642;SDS011;8435;52.184;5.406;2023-07-13T13:16:52;3.80;;;2.78;;
16642;SDS011;8435;52.184;5.406;2023-07-13T13:19:21;2.85;;;2.28;;
16642;SDS011;8435;52.184;5.406;2023-07-13T13:21:51;3.40;;;2.47;;
16642;SDS011;8435;52.184;5.406;2023-07-13T13:24:20;3.38;;;2.42;;
16642;SDS011;8435;52.184;5.406;2023-07-13T13:26:49;2.30;;;2.10;;
16642;SDS011;8435;52.184;5.406;2023-07-13T13:29:17;2.35;;;2.15;;
16642;SDS011;8435;52.184;5.406;2023-07-13T13:31:46;3.65;;;2.35;;
16642;SDS011;8435;52.184;5.406;2023-07-13T13:34:14;3.92;;;2.20;;
16642;SDS011;8435;52.184;5.406;2023-07-13T13:36:42;5.32;;;2.78;;
16642;SDS011;8435;52.184;5.406;2023-07-13T13:39:20;3.08;;;2.22;;
16642;SDS011;8435;52.184;5.406;2023-07-13T13:41:50;5.55;;;2.70;;
16642;SDS011;8435;52.184;5.406;2023-07-13T13:44:18;3.38;;;2.40;;
16642;SDS011;8435;52.184;5.406;2023-07-13T13:46:47;3.47;;;2.47;;
16642;SDS011;8435;52.184;5.406;2023-07-13T13:49:19;4.55;;;3.00;;
16642;SDS011;8435;52.184;5.406;2023-07-13T13:51:48;3.05;;;2.55;;
16642;SDS011;8435;52.184;5.406;2023-07-13T13:54:16;5.05;;;2.67;;
16642;SDS011;8435;52.184;5.406;2023-07-13T13:56:45;7.43;;;2.65;;
16642;SDS011;8435;52.184;5.406;2023-07-13T13:59:14;5.45;;;2.72;;
16642;SDS011;8435;52.184;5.406;2023-07-13T14:01:42;6.63;;;2.50;;
16642;SDS011;8435;52.184;5.406;2023-07-13T14:04:14;5.95;;;2.90;;
16642;SDS011;8435;52.184;5.406;2023-07-13T14:06:42;3.00;;;2.60;;
16642;SDS011;8435;52.184;5.406;2023-07-13T14:09:10;4.32;;;2.42;;
16642;SDS011;8435;52.184;5.406;2023-07-13T14:11:38;2.53;;;2.33;;
16642;SDS011;8435;52.184;5.406;2023-07-13T14:14:08;3.85;;;2.38;;
16642;SDS011;8435;52.184;5.406;2023-07-13T14:16:42;3.63;;;2.42;;
16642;SDS011;8435;52.184;5.406;2023-07-13T14:19:10;4.07;;;2.63;;
16642;SDS011;8435;52.184;5.406;2023-07-13T14:21:39;3.00;;;2.42;;
16642;SDS011;8435;52.184;5.406;2023-07-13T14:24:06;5.50;;;3.17;;
16642;SDS011;8435;52.184;5.406;2023-07-13T14:26:35;3.20;;;2.55;;
16642;SDS011;8435;52.184;5.406;2023-07-13T14:29:11;3.17;;;2.47;;
16642;SDS011;8435;52.184;5.406;2023-07-13T14:31:44;4.38;;;2.58;;
16642;SDS011;8435;52.184;5.406;2023-07-13T14:34:11;5.15;;;2.33;;
16642;SDS011;8435;52.184;5.406;2023-07-13T14:36:40;4.78;;;1.95;;
16642;SDS011;8435;52.184;5.406;2023-07-13T14:39:11;2.92;;;2.40;;
16642;SDS011;8435;52.184;5.406;2023-07-13T14:41:40;9.20;;;2.75;;
16642;SDS011;8435;52.184;5.406;2023-07-13T14:44:13;2.42;;;2.13;;
16642;SDS011;8435;52.184;5.406;2023-07-13T14:46:42;2.53;;;2.33;;
16642;SDS011;8435;52.184;5.406;2023-07-13T14:49:15;3.92;;;2.20;;
16642;SDS011;8435;52.184;5.406;2023-07-13T14:51:49;3.05;;;2.28;;
16642;SDS011;8435;52.184;5.406;2023-07-13T14:54:17;3.33;;;2.20;;
16642;SDS011;8435;52.184;5.406;2023-07-13T14:56:44;2.05;;;1.88;;
16642;SDS011;8435;52.184;5.406;2023-07-13T14:59:11;5.45;;;2.30;;
16642;SDS011;8435;52.184;5.406;2023-07-13T15:01:39;5.82;;;2.30;;
16642;SDS011;8435;52.184;5.406;2023-07-13T15:04:10;2.45;;;2.10;;
16642;SDS011;8435;52.184;5.406;2023-07-13T15:06:53;3.70;;;2.38;;
16642;SDS011;8435;52.184;5.406;2023-07-13T15:09:21;2.17;;;1.98;;
16642;SDS011;8435;52.184;5.406;2023-07-13T15:11:50;3.15;;;2.05;;
16642;SDS011;8435;52.184;5.406;2023-07-13T15:14:17;3.38;;;2.00;;
16642;SDS011;8435;52.184;5.406;2023-07-13T15:16:47;2.20;;;2.00;;
16642;SDS011;8435;52.184;5.406;2023-07-13T15:19:19;2.80;;;2.00;;